Overview Statistics Trail Chart Weather Telemetry Raw packets
 

This is the latest recevied weather packets stored in our database for station/object DG4CB-13. If no packets are shown the sender has not sent any weather packets the latest 10 day(s).

<< 1 2 3 4 >>
Time Temp. Humidity Pressure Rain* Wind** Luminosity Snow
1788696600 24.44° C 41% 1025 hPa - - - -
1788696000 23.33° C 41% 1025.1 hPa - - - -
1788695400 23.33° C 42% 1025.2 hPa - - - -
1788694800 22.78° C 41% 1025.3 hPa - - - -
1788694229 23.33° C 43% 1025.4 hPa - - - -
1788693600 22.78° C 45% 1025.5 hPa - - - -
1788693000 22.22° C 46% 1025.7 hPa - - - -
1788692400 22.22° C 46% 1025.7 hPa - - - -
1788691800 22.22° C 46% 1025.8 hPa - - - -
1788691200 21.11° C 47% 1026 hPa - - - -
1788690600 20.56° C 49% 1026 hPa - - - -
1788690000 20° C 47% 1026.2 hPa - - - -
1788689400 20° C 47% 1026.2 hPa - - - -
1788688800 20° C 51% 1026.1 hPa - - - -
1788688200 19.44° C 54% 1026.3 hPa - - - -
1788687600 18.89° C 54% 1026.4 hPa - - - -
1788687033 18.33° C 56% 1026.5 hPa - - - -
1788686400 17.78° C 59% 1026.4 hPa - - - -
1788685800 17.78° C 62% 1026.4 hPa - - - -
1788685200 17.22° C 66% 1026.4 hPa - - - -
1788684600 16.67° C 67% 1026.5 hPa - - - -
1788684000 16.11° C 68% 1026.5 hPa - - - -
1788683430 15° C 72% 1026.5 hPa - - - -
1788682800 14.44° C 73% 1026.4 hPa - - - -
1788677400 10° C 87% 1026.3 hPa - - - -

* Rain since midnight (hover to see other rain measurements)
** Current wind speed in m/s (hover to see current wind gust speed)